createdAt,value
2022-10-15T00:00:24.932Z,33.95
2022-10-15T00:01:11.074Z,33.75
2022-10-15T00:01:42.787Z,33.15
2022-10-15T00:02:14.416Z,35.15
2022-10-15T00:02:45.992Z,35.65
2022-10-15T00:03:17.661Z,34.40
2022-10-15T00:03:49.409Z,33.80
2022-10-15T00:04:20.983Z,33.85
2022-10-15T00:04:52.502Z,35.65
2022-10-15T00:05:24.255Z,33.30
2022-10-15T00:05:55.757Z,35.08
2022-10-15T00:06:27.291Z,31.42
2022-10-15T00:06:58.876Z,33.97
2022-10-15T00:07:30.409Z,34.78
2022-10-15T00:08:01.916Z,34.53
2022-10-15T00:08:33.607Z,35.08
2022-10-15T00:09:05.252Z,38.97
2022-10-15T00:09:36.789Z,32.35
2022-10-15T00:10:08.365Z,54.33
2022-10-15T00:10:39.938Z,82.68
2022-10-15T00:11:23.412Z,88.10
2022-10-15T00:11:55.146Z,91.57
2022-10-15T00:12:26.772Z,77.95
2022-10-15T00:12:58.391Z,58.13
2022-10-15T00:13:30.073Z,61.13
2022-10-15T00:14:01.700Z,80.50
2022-10-15T00:14:33.301Z,84.20
2022-10-15T00:15:05.595Z,83.80
2022-10-15T00:15:37.874Z,84.90
2022-10-15T00:16:12.330Z,86.13
2022-10-15T00:16:44.045Z,85.55
2022-10-15T00:17:15.593Z,91.38
2022-10-15T00:17:47.101Z,88.80
2022-10-15T00:18:18.615Z,86.10
2022-10-15T00:18:51.712Z,85.72
2022-10-15T00:19:23.240Z,80.95
2022-10-15T00:19:54.752Z,80.47
2022-10-15T00:20:26.268Z,75.32
2022-10-15T00:20:57.805Z,81.00
2022-10-15T00:21:29.757Z,78.95
2022-10-15T00:22:39.247Z,66.93
2022-10-15T00:23:10.836Z,68.60
2022-10-15T00:23:42.766Z,71.47
2022-10-15T00:24:14.304Z,69.80
2022-10-15T00:24:45.802Z,72.10
2022-10-15T00:25:17.430Z,71.70
2022-10-15T00:25:48.968Z,71.60
2022-10-15T00:26:25.225Z,68.18
2022-10-15T00:26:56.753Z,66.80
2022-10-15T00:27:28.401Z,66.95
2022-10-15T00:27:59.917Z,60.70
2022-10-15T00:28:33.555Z,59.05
2022-10-15T00:29:06.207Z,62.75
2022-10-15T00:29:37.786Z,66.72
2022-10-15T00:30:09.997Z,55.78
2022-10-15T00:30:41.550Z,55.88
2022-10-15T00:31:15.508Z,51.30
2022-10-15T00:31:47.033Z,52.80
2022-10-15T00:32:18.567Z,49.88
2022-10-15T00:32:50.119Z,56.00
2022-10-15T00:33:22.989Z,59.40
2022-10-15T00:33:57.289Z,60.08
2022-10-15T00:34:29.147Z,56.45
2022-10-15T00:35:00.683Z,55.63
2022-10-15T00:35:32.238Z,52.25
2022-10-15T00:36:06.987Z,56.38
2022-10-15T00:36:38.613Z,53.97
2022-10-15T00:37:10.282Z,48.80
2022-10-15T00:37:44.064Z,49.47
2022-10-15T00:38:15.580Z,42.90
2022-10-15T00:38:47.397Z,41.70
2022-10-15T00:39:19.082Z,47.78
2022-10-15T00:39:50.908Z,46.95
2022-10-15T00:40:22.949Z,46.90
2022-10-15T00:40:54.540Z,46.67
2022-10-15T00:41:30.468Z,44.17
2022-10-15T00:42:02.072Z,45.50
2022-10-15T00:42:33.671Z,45.13
2022-10-15T00:43:10.257Z,42.50
2022-10-15T00:43:51.195Z,48.38
2022-10-15T00:44:25.314Z,47.55
2022-10-15T00:44:59.116Z,42.70
2022-10-15T00:45:30.629Z,44.28
2022-10-15T00:46:02.181Z,40.90
2022-10-15T00:46:39.204Z,44.10
2022-10-15T00:47:18.485Z,45.33
2022-10-15T00:47:51.618Z,42.08
2022-10-15T00:48:31.131Z,42.70
2022-10-15T00:49:27.934Z,38.55
2022-10-15T00:50:12.658Z,43.47
2022-10-15T00:50:44.255Z,41.08
2022-10-15T00:51:19.263Z,41.75
2022-10-15T00:52:03.260Z,45.90
2022-10-15T00:53:04.998Z,48.15
2022-10-15T00:53:36.506Z,40.25
2022-10-15T00:54:09.036Z,40.45
2022-10-15T00:54:44.678Z,43.72
2022-10-15T00:55:28.191Z,39.72
2022-10-15T00:56:01.084Z,41.00
2022-10-15T00:56:34.050Z,43.22
2022-10-15T00:57:07.451Z,38.42
2022-10-15T00:57:40.302Z,41.70
2022-10-15T00:58:14.791Z,41.58
2022-10-15T00:58:47.092Z,36.13
2022-10-15T00:59:21.290Z,38.80
2022-10-15T00:59:57.461Z,41.15
2022-10-15T01:00:29.183Z,41.50
2022-10-15T01:01:00.847Z,38.33
2022-10-15T01:01:32.758Z,42.03
2022-10-15T01:02:06.691Z,38.33
2022-10-15T01:02:38.252Z,39.17
2022-10-15T01:03:12.743Z,32.08
2022-10-15T01:03:44.540Z,37.42
2022-10-15T01:04:18.822Z,39.75
2022-10-15T01:04:50.960Z,37.90
2022-10-15T01:05:23.485Z,39.58
2022-10-15T01:05:55.554Z,38.60
2022-10-15T01:06:27.334Z,36.13
2022-10-15T01:06:59.110Z,38.22
2022-10-15T01:07:30.642Z,35.17
2022-10-15T01:08:02.152Z,38.22
2022-10-15T01:08:35.072Z,34.75
2022-10-15T01:09:06.861Z,35.95
2022-10-15T01:09:42.479Z,37.08
2022-10-15T01:10:14.510Z,43.47
2022-10-15T01:10:52.166Z,37.15
2022-10-15T01:11:42.457Z,37.50
2022-10-15T01:12:28.228Z,38.05
2022-10-15T01:13:18.491Z,33.60
2022-10-15T01:14:23.040Z,36.03
2022-10-15T01:15:00.410Z,38.17
2022-10-15T01:15:55.451Z,37.53
2022-10-15T01:16:51.042Z,31.63
2022-10-15T01:17:35.171Z,34.38
2022-10-15T01:18:14.354Z,35.45
2022-10-15T01:19:14.175Z,37.58
2022-10-15T01:20:11.554Z,33.67
2022-10-15T01:21:08.403Z,37.33
2022-10-15T01:22:15.269Z,35.17
2022-10-15T01:23:26.107Z,33.67
2022-10-15T01:24:22.433Z,30.85
2022-10-15T01:24:59.950Z,31.75
2022-10-15T01:26:14.114Z,34.63
2022-10-15T01:27:17.350Z,36.05
2022-10-15T01:27:56.766Z,36.70
2022-10-15T01:29:06.600Z,33.70
2022-10-15T01:30:22.283Z,34.10
2022-10-15T01:31:12.535Z,32.78
2022-10-15T01:32:08.040Z,31.48
2022-10-15T01:32:47.443Z,33.15
2022-10-15T01:33:30.451Z,31.88
2022-10-15T01:35:08.248Z,32.33
2022-10-15T01:35:42.852Z,33.20
2022-10-15T01:36:29.854Z,33.30
2022-10-15T01:37:13.098Z,32.58
2022-10-15T01:37:59.615Z,34.30
2022-10-15T01:38:43.883Z,34.50
2022-10-15T01:39:31.070Z,33.90
2022-10-15T01:40:12.534Z,35.60
2022-10-15T01:40:50.342Z,37.40
2022-10-15T01:41:27.550Z,35.55
2022-10-15T01:42:07.893Z,33.88
2022-10-15T01:42:43.505Z,32.53
2022-10-15T01:43:26.862Z,37.90
2022-10-15T01:44:07.474Z,31.63
2022-10-15T01:44:42.385Z,34.00
2022-10-15T01:45:19.588Z,33.70
2022-10-15T01:45:58.567Z,33.30
2022-10-15T01:46:39.703Z,32.22
2022-10-15T01:47:35.799Z,32.20
2022-10-15T01:48:11.188Z,33.60
2022-10-15T01:48:43.142Z,32.20
2022-10-15T01:49:21.294Z,32.38
2022-10-15T01:49:54.390Z,34.10
2022-10-15T01:50:30.255Z,30.90
2022-10-15T01:51:05.634Z,31.95
2022-10-15T01:51:40.144Z,33.05
2022-10-15T01:52:19.501Z,31.77
2022-10-15T01:52:52.346Z,35.20
2022-10-15T01:53:26.949Z,32.05
2022-10-15T01:54:00.116Z,35.38
2022-10-15T01:54:32.361Z,31.55
2022-10-15T01:55:06.849Z,35.92
2022-10-15T01:55:42.632Z,31.60
2022-10-15T01:56:20.187Z,33.63
2022-10-15T01:56:53.970Z,30.55
2022-10-15T01:57:28.549Z,31.52
2022-10-15T01:58:00.720Z,33.50
2022-10-15T01:58:34.534Z,30.73
2022-10-15T01:59:07.318Z,31.60
2022-10-15T01:59:39.038Z,33.10
2022-10-15T02:00:11.430Z,28.98
2022-10-15T02:01:22.125Z,33.30
2022-10-15T02:01:57.474Z,30.08
2022-10-15T02:02:29.694Z,29.73
2022-10-15T02:03:02.237Z,32.38
2022-10-15T02:03:47.740Z,32.70
2022-10-15T02:04:24.250Z,31.20
2022-10-15T02:04:55.778Z,31.58
2022-10-15T02:05:32.181Z,30.98
2022-10-15T02:06:08.755Z,32.63
2022-10-15T02:06:44.373Z,32.42
2022-10-15T02:07:32.330Z,30.05
2022-10-15T02:08:35.875Z,32.65
2022-10-15T02:09:16.505Z,33.88
2022-10-15T02:10:12.257Z,29.35
2022-10-15T02:10:53.752Z,28.50
2022-10-15T02:11:25.890Z,33.75
2022-10-15T02:12:09.646Z,31.42
2022-10-15T02:12:53.183Z,30.05
2022-10-15T02:13:28.900Z,30.27
2022-10-15T02:14:05.032Z,29.75
2022-10-15T02:14:51.415Z,32.15
2022-10-15T02:15:25.970Z,29.50
2022-10-15T02:16:09.917Z,29.10
2022-10-15T02:16:51.911Z,28.25
2022-10-15T02:17:59.658Z,27.95
2022-10-15T02:18:51.058Z,28.42
2022-10-15T02:19:32.335Z,26.05
2022-10-15T02:20:15.645Z,29.10
2022-10-15T02:20:58.421Z,27.52
2022-10-15T02:21:47.397Z,31.30
2022-10-15T02:22:56.762Z,28.65
2022-10-15T02:23:35.861Z,28.75
2022-10-15T02:24:13.971Z,31.48
2022-10-15T02:24:55.524Z,29.67
2022-10-15T02:25:28.622Z,28.70
2022-10-15T02:26:00.266Z,31.63
2022-10-15T02:26:34.631Z,27.83
2022-10-15T02:27:08.413Z,30.35
2022-10-15T02:27:41.610Z,30.98
2022-10-15T02:28:16.228Z,31.13
2022-10-15T02:28:55.176Z,33.25
2022-10-15T02:29:32.859Z,33.00
2022-10-15T02:30:08.216Z,33.10
2022-10-15T02:30:42.191Z,30.60
2022-10-15T02:31:16.528Z,28.92
2022-10-15T02:31:49.853Z,27.65
2022-10-15T02:32:22.610Z,26.45
2022-10-15T02:32:58.132Z,30.27
2022-10-15T02:33:31.990Z,32.03
2022-10-15T02:34:08.037Z,30.08
2022-10-15T02:34:40.295Z,29.75
2022-10-15T02:35:12.581Z,29.30
2022-10-15T02:35:45.124Z,28.30
2022-10-15T02:36:19.131Z,30.90
2022-10-15T02:36:51.789Z,25.45
2022-10-15T02:37:26.689Z,32.25
2022-10-15T02:38:02.073Z,30.00
2022-10-15T02:38:35.087Z,29.17
2022-10-15T02:39:08.592Z,26.45
2022-10-15T02:39:40.137Z,28.55
2022-10-15T02:40:12.454Z,27.42
2022-10-15T02:40:45.240Z,27.98
2022-10-15T02:41:17.459Z,28.40
2022-10-15T02:41:49.679Z,27.55
2022-10-15T02:42:22.022Z,28.92
2022-10-15T02:42:54.218Z,26.55
2022-10-15T02:43:25.855Z,24.58
2022-10-15T02:43:57.463Z,29.38
2022-10-15T02:44:29.080Z,26.85
2022-10-15T02:45:00.656Z,29.05
2022-10-15T02:45:32.235Z,27.40
2022-10-15T02:46:04.979Z,29.95
2022-10-15T02:46:36.572Z,25.42
2022-10-15T02:47:08.142Z,27.25
2022-10-15T02:47:39.663Z,26.25
2022-10-15T02:48:11.173Z,27.58
2022-10-15T02:48:42.733Z,27.05
2022-10-15T02:49:14.331Z,31.45
2022-10-15T02:49:45.903Z,29.05
2022-10-15T02:50:17.407Z,31.33
2022-10-15T02:50:48.915Z,30.48
2022-10-15T02:51:20.415Z,30.35
2022-10-15T02:51:51.939Z,30.10
2022-10-15T02:52:23.787Z,30.70
2022-10-15T02:52:55.605Z,29.33
2022-10-15T02:53:27.126Z,31.00
2022-10-15T02:54:00.583Z,27.48
2022-10-15T02:54:32.118Z,28.73
2022-10-15T02:55:03.893Z,28.08
2022-10-15T02:55:35.459Z,26.30
2022-10-15T02:56:07.191Z,27.13
2022-10-15T02:56:39.525Z,27.15
2022-10-15T02:57:11.399Z,27.30
2022-10-15T02:57:42.915Z,28.30
2022-10-15T02:58:14.533Z,26.83
2022-10-15T02:58:46.034Z,28.95
2022-10-15T02:59:19.690Z,28.77
2022-10-15T02:59:51.322Z,29.25
2022-10-15T03:00:22.968Z,27.95
2022-10-15T03:00:54.839Z,27.48
2022-10-15T03:01:26.468Z,25.02
2022-10-15T03:01:58.136Z,28.00
2022-10-15T03:02:29.635Z,25.90
2022-10-15T03:03:01.165Z,27.88
2022-10-15T03:03:32.877Z,31.15
2022-10-15T03:04:04.567Z,25.98
2022-10-15T03:04:36.257Z,28.00
2022-10-15T03:05:08.213Z,28.85
2022-10-15T03:05:39.837Z,27.95
2022-10-15T03:06:11.352Z,29.23
2022-10-15T03:06:42.962Z,29.63
2022-10-15T03:07:14.724Z,32.80
2022-10-15T03:07:46.260Z,37.70
2022-10-15T03:08:17.813Z,35.92
2022-10-15T03:08:49.355Z,37.65
2022-10-15T03:09:20.870Z,32.22
2022-10-15T03:09:52.413Z,28.85
2022-10-15T03:10:23.936Z,42.80
2022-10-15T03:10:55.448Z,39.80
2022-10-15T03:11:26.958Z,37.00
2022-10-15T03:11:58.485Z,34.88
2022-10-15T03:12:30.048Z,41.20
2022-10-15T03:13:05.100Z,39.55
2022-10-15T03:13:38.617Z,42.40
2022-10-15T03:14:10.168Z,44.75
2022-10-15T03:14:41.715Z,38.95
2022-10-15T03:15:13.291Z,35.22
2022-10-15T03:15:44.899Z,42.80
2022-10-15T03:16:16.457Z,40.72
2022-10-15T03:16:47.967Z,45.47
2022-10-15T03:17:19.552Z,48.78
2022-10-15T03:17:51.061Z,47.17
2022-10-15T03:18:23.046Z,50.97
2022-10-15T03:18:54.594Z,42.05
2022-10-15T03:19:26.231Z,38.58
2022-10-15T03:19:57.788Z,37.72
2022-10-15T03:20:29.308Z,38.00
2022-10-15T03:21:01.210Z,42.03
2022-10-15T03:21:32.784Z,42.35
2022-10-15T03:22:04.294Z,33.72
2022-10-15T03:22:35.886Z,36.17
2022-10-15T03:23:07.396Z,36.70
2022-10-15T03:23:39.232Z,36.47
2022-10-15T03:24:10.991Z,35.58
2022-10-15T03:24:42.567Z,34.22
2022-10-15T03:25:14.182Z,28.17
2022-10-15T03:25:45.683Z,34.50
2022-10-15T03:26:17.203Z,33.78
2022-10-15T03:26:48.739Z,39.45
2022-10-15T03:27:20.362Z,41.28
2022-10-15T03:27:52.922Z,35.92
2022-10-15T03:28:24.664Z,42.75
2022-10-15T03:28:56.328Z,36.97
2022-10-15T03:29:27.877Z,37.05
2022-10-15T03:29:59.397Z,38.13
2022-10-15T03:30:30.905Z,38.75
2022-10-15T03:31:02.482Z,38.75
2022-10-15T03:31:34.136Z,34.60
2022-10-15T03:32:05.913Z,30.27
2022-10-15T03:32:37.499Z,32.05
2022-10-15T03:33:09.666Z,33.38
2022-10-15T03:33:41.177Z,29.52
2022-10-15T03:34:12.698Z,30.83
2022-10-15T03:34:44.213Z,35.95
2022-10-15T03:35:15.861Z,37.40
2022-10-15T03:35:47.473Z,35.70
2022-10-15T03:36:19.033Z,32.58
2022-10-15T03:36:50.585Z,29.60
2022-10-15T03:37:22.288Z,33.90
2022-10-15T03:37:53.928Z,31.00
2022-10-15T03:38:25.472Z,35.60
2022-10-15T03:38:57.003Z,35.70
2022-10-15T03:39:28.501Z,35.42
2022-10-15T03:40:00.051Z,34.58
2022-10-15T03:40:31.924Z,38.70
2022-10-15T03:41:03.546Z,34.72
2022-10-15T03:41:35.157Z,36.55
2022-10-15T03:42:06.697Z,34.25
2022-10-15T03:42:38.210Z,34.53
2022-10-15T03:43:09.719Z,30.25
2022-10-15T03:43:42.854Z,34.25
2022-10-15T03:44:14.811Z,33.13
2022-10-15T03:44:46.334Z,32.53
2022-10-15T03:45:19.270Z,32.58
2022-10-15T03:45:50.845Z,33.67
2022-10-15T03:46:22.358Z,29.77
2022-10-15T03:46:53.899Z,33.17
2022-10-15T03:47:25.498Z,33.38
2022-10-15T03:47:57.019Z,32.38
2022-10-15T03:48:28.666Z,34.75
2022-10-15T03:49:00.656Z,28.67
2022-10-15T03:49:32.191Z,35.70
2022-10-15T03:50:04.236Z,38.60
2022-10-15T03:50:35.839Z,38.72
2022-10-15T03:51:07.412Z,32.22
2022-10-15T03:51:38.959Z,32.05
2022-10-15T03:52:10.541Z,28.73
2022-10-15T03:52:42.397Z,28.95
2022-10-15T03:53:14.024Z,29.73
2022-10-15T03:53:45.564Z,29.33
2022-10-15T03:54:17.241Z,28.40
2022-10-15T03:54:48.773Z,31.75
2022-10-15T03:55:20.292Z,38.60
2022-10-15T03:55:51.869Z,37.40
2022-10-15T03:56:23.377Z,32.25
2022-10-15T03:56:54.890Z,29.45
2022-10-15T03:57:26.414Z,29.63
2022-10-15T03:57:57.943Z,29.48
2022-10-15T03:58:29.458Z,27.30
2022-10-15T03:59:00.981Z,28.30
2022-10-15T03:59:32.568Z,31.48
2022-10-15T04:00:06.092Z,35.25
2022-10-15T04:00:40.796Z,36.53
2022-10-15T04:01:15.768Z,35.63
2022-10-15T04:01:47.346Z,30.25
2022-10-15T04:02:18.888Z,31.27
2022-10-15T04:02:50.433Z,36.65
2022-10-15T04:03:21.966Z,35.05
2022-10-15T04:03:54.059Z,35.08
2022-10-15T04:04:25.644Z,29.15
2022-10-15T04:04:57.310Z,32.72
2022-10-15T04:05:28.877Z,30.63
2022-10-15T04:06:02.668Z,30.70
2022-10-15T04:06:34.853Z,32.45
2022-10-15T04:07:06.399Z,29.33
2022-10-15T04:07:37.943Z,28.92
2022-10-15T04:08:09.485Z,27.40
2022-10-15T04:08:41.041Z,32.28
2022-10-15T04:09:12.608Z,32.88
2022-10-15T04:09:44.119Z,35.38
2022-10-15T04:10:15.685Z,33.42
2022-10-15T04:10:47.433Z,32.63
2022-10-15T04:11:18.996Z,33.80
2022-10-15T04:11:50.528Z,35.80
2022-10-15T04:12:22.628Z,31.27
2022-10-15T04:12:54.422Z,31.37
2022-10-15T04:13:29.289Z,31.52
2022-10-15T04:14:00.792Z,31.45
2022-10-15T04:14:32.304Z,31.58
2022-10-15T04:15:04.343Z,33.05
2022-10-15T04:15:39.398Z,31.23
2022-10-15T04:16:10.909Z,35.85
2022-10-15T04:16:42.458Z,33.33
2022-10-15T04:17:14.075Z,37.67
2022-10-15T04:17:45.694Z,35.13
2022-10-15T04:18:17.342Z,36.87
2022-10-15T04:18:49.243Z,36.28
2022-10-15T04:19:20.772Z,35.70
2022-10-15T04:19:52.326Z,37.50
2022-10-15T04:20:23.871Z,35.45
2022-10-15T04:20:59.019Z,30.50
2022-10-15T04:21:30.559Z,31.02
2022-10-15T04:22:03.260Z,30.67
2022-10-15T04:22:36.611Z,30.98
2022-10-15T04:23:08.891Z,30.38
2022-10-15T04:23:40.404Z,30.08
2022-10-15T04:24:11.932Z,30.20
2022-10-15T04:24:43.440Z,32.20
2022-10-15T04:25:15.144Z,31.80
2022-10-15T04:25:47.157Z,31.17
2022-10-15T04:26:18.907Z,33.00
2022-10-15T04:26:50.459Z,29.80
2022-10-15T04:27:21.971Z,32.28
2022-10-15T04:27:53.731Z,33.17
2022-10-15T04:28:25.358Z,31.75
2022-10-15T04:28:57.029Z,31.67
2022-10-15T04:29:28.773Z,32.28
2022-10-15T04:30:00.300Z,30.98
2022-10-15T04:30:31.882Z,30.38
2022-10-15T04:31:03.403Z,34.08
2022-10-15T04:31:35.093Z,34.33
2022-10-15T04:32:06.652Z,34.03
2022-10-15T04:32:38.169Z,34.10
2022-10-15T04:33:09.813Z,34.42
2022-10-15T04:33:41.346Z,31.92
2022-10-15T04:34:12.889Z,34.05
2022-10-15T04:34:46.415Z,31.63
2022-10-15T04:35:18.030Z,33.67
2022-10-15T04:36:01.862Z,30.63
2022-10-15T04:36:34.179Z,30.15
2022-10-15T04:37:05.683Z,30.38
2022-10-15T04:37:37.202Z,30.15
2022-10-15T04:38:08.759Z,33.05
2022-10-15T04:38:40.670Z,30.58
2022-10-15T04:39:14.488Z,31.48
2022-10-15T04:39:46.262Z,31.13
2022-10-15T04:40:18.703Z,29.00
2022-10-15T04:40:50.217Z,32.17
2022-10-15T04:41:21.777Z,33.95
2022-10-15T04:41:53.310Z,32.92
2022-10-15T04:42:24.824Z,34.25
2022-10-15T04:42:56.354Z,32.15
2022-10-15T04:43:28.994Z,33.38
2022-10-15T04:44:00.595Z,33.13
2022-10-15T04:44:32.247Z,36.60
2022-10-15T04:45:04.199Z,32.75
2022-10-15T04:45:35.701Z,34.25
2022-10-15T04:46:08.446Z,33.65
2022-10-15T04:46:40.103Z,33.95
2022-10-15T04:47:11.622Z,31.90
2022-10-15T04:47:43.231Z,31.45
2022-10-15T04:48:14.741Z,32.42
2022-10-15T04:48:46.239Z,37.47
2022-10-15T04:49:17.754Z,33.00
2022-10-15T04:49:49.308Z,35.65
2022-10-15T04:50:20.819Z,36.20
2022-10-15T04:50:52.333Z,34.70
2022-10-15T04:51:25.898Z,33.67
2022-10-15T04:51:57.643Z,35.70
2022-10-15T04:52:29.450Z,33.90
2022-10-15T04:53:00.946Z,34.00
2022-10-15T04:53:32.874Z,35.50
2022-10-15T04:54:04.819Z,38.97
2022-10-15T04:54:36.570Z,36.78
2022-10-15T04:55:08.185Z,35.88
2022-10-15T04:55:39.694Z,36.60
2022-10-15T04:56:15.337Z,39.47
2022-10-15T04:56:46.842Z,34.30
2022-10-15T04:57:18.474Z,36.78
2022-10-15T04:57:49.979Z,35.85
2022-10-15T04:58:21.700Z,36.85
2022-10-15T04:58:53.237Z,42.30
2022-10-15T04:59:24.748Z,36.08
2022-10-15T04:59:57.869Z,37.22
2022-10-15T05:00:29.663Z,35.78
2022-10-15T05:01:03.190Z,35.25
2022-10-15T05:01:34.764Z,36.88
2022-10-15T05:02:06.418Z,32.42
2022-10-15T05:02:42.146Z,33.92
2022-10-15T05:03:13.834Z,32.38
2022-10-15T05:03:47.560Z,32.78
2022-10-15T05:04:19.338Z,31.40
2022-10-15T05:04:51.274Z,37.22
2022-10-15T05:05:23.054Z,34.88
2022-10-15T05:05:54.650Z,36.55
2022-10-15T05:06:26.216Z,35.40
2022-10-15T05:06:57.750Z,32.47
2022-10-15T05:07:29.325Z,36.97
2022-10-15T05:08:02.315Z,36.50
2022-10-15T05:08:35.506Z,39.88
2022-10-15T05:09:07.239Z,34.85
2022-10-15T05:09:42.799Z,38.05
2022-10-15T05:10:17.058Z,35.42
2022-10-15T05:10:48.590Z,33.92
2022-10-15T05:11:22.582Z,36.92
2022-10-15T05:11:55.899Z,33.70
2022-10-15T05:12:27.402Z,35.67
2022-10-15T05:12:58.926Z,38.17
2022-10-15T05:13:31.295Z,35.20
2022-10-15T05:14:02.836Z,37.00
2022-10-15T05:14:35.733Z,34.13
2022-10-15T05:15:07.623Z,34.95
2022-10-15T05:15:39.138Z,37.00
2022-10-15T05:16:14.578Z,33.30
2022-10-15T05:16:47.062Z,34.55
2022-10-15T05:17:18.560Z,34.90
2022-10-15T05:17:50.073Z,33.20
2022-10-15T05:18:21.649Z,35.33
2022-10-15T05:18:57.112Z,33.40
2022-10-15T05:19:28.632Z,34.33
2022-10-15T05:20:00.137Z,36.67
2022-10-15T05:20:31.642Z,33.70
2022-10-15T05:21:03.198Z,32.53
2022-10-15T05:21:36.123Z,39.70
2022-10-15T05:22:07.672Z,45.47
2022-10-15T05:22:39.232Z,39.13
2022-10-15T05:23:10.826Z,36.72
2022-10-15T05:23:42.534Z,35.45
2022-10-15T05:24:14.153Z,37.17
2022-10-15T05:24:45.655Z,38.67
2022-10-15T05:25:17.330Z,37.70
2022-10-15T05:25:51.735Z,37.60
2022-10-15T05:26:27.371Z,38.75
2022-10-15T05:27:01.806Z,39.47
2022-10-15T05:27:34.693Z,39.88
2022-10-15T05:28:06.337Z,42.20
2022-10-15T05:28:38.369Z,45.53
2022-10-15T05:29:09.933Z,46.05
2022-10-15T05:29:41.435Z,42.03
2022-10-15T05:30:12.970Z,41.53
2022-10-15T05:30:44.497Z,43.67
2022-10-15T05:31:19.299Z,42.33
2022-10-15T05:31:52.495Z,39.45
2022-10-15T05:32:24.158Z,39.70
2022-10-15T05:32:55.695Z,37.42
2022-10-15T05:33:27.966Z,38.22
2022-10-15T05:33:59.555Z,39.75
2022-10-15T05:34:31.334Z,41.30
2022-10-15T05:35:02.883Z,40.33
2022-10-15T05:35:34.400Z,40.67
2022-10-15T05:36:29.700Z,39.10
2022-10-15T05:37:01.287Z,43.08
2022-10-15T05:37:32.821Z,44.45
2022-10-15T05:38:04.615Z,47.80
2022-10-15T05:38:36.416Z,47.13
2022-10-15T05:39:10.543Z,48.30
2022-10-15T05:39:42.061Z,49.95
2022-10-15T05:40:15.887Z,51.05
2022-10-15T05:40:49.483Z,48.17
2022-10-15T05:41:21.751Z,43.08
2022-10-15T05:41:53.570Z,46.05
2022-10-15T05:42:25.289Z,45.35
2022-10-15T05:42:56.810Z,46.15
2022-10-15T05:43:28.319Z,45.58
2022-10-15T05:43:59.871Z,40.97
2022-10-15T05:44:31.426Z,45.92
2022-10-15T05:45:03.629Z,49.03
2022-10-15T05:45:35.135Z,43.97
2022-10-15T05:46:07.009Z,41.17
2022-10-15T05:46:39.132Z,44.63
2022-10-15T05:47:12.414Z,45.28
2022-10-15T05:47:43.924Z,47.20
2022-10-15T05:48:15.827Z,44.53
2022-10-15T05:48:58.171Z,50.95
2022-10-15T05:49:29.672Z,45.92
2022-10-15T05:50:01.176Z,45.00
2022-10-15T05:50:33.115Z,44.35
2022-10-15T05:51:07.306Z,43.72
2022-10-15T05:51:38.929Z,42.38
2022-10-15T05:52:10.470Z,44.03
2022-10-15T05:52:41.994Z,43.58
2022-10-15T05:53:13.508Z,43.83
2022-10-15T05:53:46.337Z,43.20
2022-10-15T05:54:17.971Z,44.33
2022-10-15T05:54:49.470Z,43.38
2022-10-15T05:55:21.008Z,44.35
2022-10-15T05:55:56.276Z,43.40
2022-10-15T05:56:28.004Z,43.90
2022-10-15T05:56:59.514Z,43.72
2022-10-15T05:57:31.020Z,42.33
2022-10-15T05:58:03.869Z,44.38
2022-10-15T05:58:37.544Z,48.15
2022-10-15T05:59:09.358Z,45.08
2022-10-15T05:59:40.890Z,46.47
2022-10-15T06:00:13.112Z,44.28
2022-10-15T06:00:45.138Z,46.15
2022-10-15T06:01:16.777Z,42.90
2022-10-15T06:01:48.336Z,46.70
2022-10-15T06:02:20.071Z,44.88
2022-10-15T06:03:23.929Z,46.75
2022-10-15T06:03:55.437Z,41.92
2022-10-15T06:04:29.513Z,46.22
2022-10-15T06:05:03.764Z,46.10
2022-10-15T06:05:35.275Z,42.85
2022-10-15T06:06:20.893Z,43.93
2022-10-15T06:06:52.441Z,45.53
2022-10-15T06:07:24.205Z,45.45
2022-10-15T06:07:56.877Z,42.80
2022-10-15T06:08:29.915Z,42.70
2022-10-15T06:09:04.134Z,42.90
2022-10-15T06:09:35.640Z,46.80
2022-10-15T06:10:07.709Z,41.08
2022-10-15T06:10:39.875Z,46.55
2022-10-15T06:11:11.708Z,44.97
2022-10-15T06:11:43.277Z,43.63
2022-10-15T06:12:14.825Z,41.63
2022-10-15T06:12:50.806Z,41.55
2022-10-15T06:13:22.794Z,38.63
2022-10-15T06:13:54.549Z,44.55
2022-10-15T06:14:26.856Z,45.38
2022-10-15T06:14:58.373Z,36.58
2022-10-15T06:15:30.074Z,40.25
2022-10-15T06:16:03.956Z,42.90
2022-10-15T06:16:35.501Z,42.20
2022-10-15T06:17:07.044Z,39.47
2022-10-15T06:17:38.582Z,37.33
2022-10-15T06:18:12.396Z,37.72
2022-10-15T06:18:43.988Z,41.30
2022-10-15T06:19:15.577Z,39.63
2022-10-15T06:19:47.109Z,39.30
2022-10-15T06:20:18.639Z,41.45
2022-10-15T06:20:53.693Z,40.55
2022-10-15T06:21:25.258Z,36.42
2022-10-15T06:21:57.466Z,38.78
2022-10-15T06:22:31.052Z,35.97
2022-10-15T06:23:04.948Z,33.00
2022-10-15T06:23:36.601Z,38.17
2022-10-15T06:24:10.074Z,37.63
2022-10-15T06:24:41.890Z,37.53
2022-10-15T06:25:13.782Z,35.53
2022-10-15T06:25:46.070Z,33.67
2022-10-15T06:26:17.725Z,36.92
2022-10-15T06:26:49.256Z,39.45
2022-10-15T06:27:20.879Z,36.97
2022-10-15T06:27:53.174Z,35.90
2022-10-15T06:28:24.750Z,37.13
2022-10-15T06:28:59.471Z,35.42
2022-10-15T06:29:31.056Z,35.05
2022-10-15T06:30:02.873Z,33.80
2022-10-15T06:30:34.376Z,36.63
2022-10-15T06:31:07.017Z,34.30
2022-10-15T06:31:38.564Z,36.47
2022-10-15T06:32:11.063Z,32.40
2022-10-15T06:32:50.122Z,31.27
2022-10-15T06:33:21.653Z,34.53
2022-10-15T06:33:53.231Z,33.88
2022-10-15T06:34:24.790Z,32.45
2022-10-15T06:34:56.372Z,31.58
2022-10-15T06:35:30.437Z,30.63
2022-10-15T06:36:07.078Z,33.08
2022-10-15T06:36:38.629Z,31.35
2022-10-15T06:37:10.412Z,31.20
2022-10-15T06:37:41.929Z,31.92
2022-10-15T06:38:13.438Z,34.05
2022-10-15T06:38:47.537Z,34.23
2022-10-15T06:39:19.201Z,31.30
2022-10-15T06:39:50.998Z,30.30
2022-10-15T06:40:22.629Z,32.88
2022-10-15T06:40:54.154Z,29.65
2022-10-15T06:41:25.742Z,32.42
2022-10-15T06:41:59.635Z,34.38
2022-10-15T06:42:31.140Z,30.58
2022-10-15T06:43:11.008Z,34.15
2022-10-15T06:43:42.981Z,31.77
2022-10-15T06:44:14.635Z,31.23
2022-10-15T06:44:46.147Z,31.92
2022-10-15T06:45:20.955Z,30.67
2022-10-15T06:45:53.436Z,31.42
2022-10-15T06:46:24.995Z,34.05
2022-10-15T06:46:56.658Z,34.67
2022-10-15T06:47:28.176Z,33.75
2022-10-15T06:47:59.687Z,30.67
2022-10-15T06:48:32.671Z,32.78
2022-10-15T06:49:04.287Z,28.48
2022-10-15T06:49:35.847Z,29.43
2022-10-15T06:50:07.671Z,35.55
2022-10-15T06:50:39.366Z,29.88
2022-10-15T06:51:11.252Z,29.48
2022-10-15T06:51:42.852Z,32.00
2022-10-15T06:52:14.385Z,30.90
2022-10-15T06:52:46.055Z,31.08
2022-10-15T06:53:17.820Z,32.28
2022-10-15T06:53:49.407Z,30.05
2022-10-15T06:54:20.959Z,29.70
2022-10-15T06:54:52.615Z,29.57
2022-10-15T06:55:24.240Z,33.47
2022-10-15T06:55:59.847Z,29.90
2022-10-15T06:56:31.429Z,29.98
2022-10-15T06:57:03.052Z,29.75
2022-10-15T06:57:34.569Z,32.08
2022-10-15T06:58:06.250Z,31.42
2022-10-15T06:58:37.781Z,29.27
2022-10-15T06:59:09.326Z,28.23
2022-10-15T06:59:41.587Z,31.35
2022-10-15T07:00:13.992Z,27.20
2022-10-15T07:00:45.507Z,28.17
2022-10-15T07:01:17.343Z,30.48
2022-10-15T07:01:48.877Z,26.33
2022-10-15T07:02:20.632Z,31.27
2022-10-15T07:02:52.864Z,26.23
2022-10-15T07:03:24.370Z,27.33
2022-10-15T07:03:55.897Z,30.55
2022-10-15T07:04:27.406Z,29.95
2022-10-15T07:04:59.778Z,29.85
2022-10-15T07:05:31.770Z,30.30
2022-10-15T07:06:04.956Z,29.15
2022-10-15T07:06:36.734Z,27.25
2022-10-15T07:07:08.287Z,28.00
2022-10-15T07:07:39.888Z,27.45
2022-10-15T07:08:15.498Z,26.35
2022-10-15T07:08:50.770Z,28.85
2022-10-15T07:09:22.330Z,27.85
2022-10-15T07:09:55.238Z,24.95
2022-10-15T07:10:28.237Z,27.42
2022-10-15T07:11:05.478Z,24.13
2022-10-15T07:11:36.994Z,26.55
2022-10-15T07:12:08.529Z,23.30
2022-10-15T07:12:40.050Z,24.05
2022-10-15T07:13:11.595Z,24.13
2022-10-15T07:13:44.255Z,23.42
2022-10-15T07:14:15.805Z,23.70
2022-10-15T07:14:47.336Z,21.38
2022-10-15T07:15:19.254Z,26.98
2022-10-15T07:15:53.975Z,22.80
2022-10-15T07:16:26.435Z,23.40
2022-10-15T07:16:58.795Z,23.00
2022-10-15T07:17:31.624Z,24.20
2022-10-15T07:18:03.952Z,25.27
2022-10-15T07:18:36.122Z,24.42
2022-10-15T07:19:07.678Z,24.80
2022-10-15T07:19:39.481Z,25.00